Time;durP1;ratioP1;P1;durP2;ratioP2;P2;SDS_P1;SDS_P2;PMS_P1;PMS_P2;Temp;Humidity;BMP_temperature;BMP_pressure;BME280_temperature;BME280_humidity;BME280_pressure;Samples;Min_cycle;Max_cycle;Signal;HPM_P1;HPM_P2
2023/03/17 00:00:09;;;;;;;5.03;2.90;;;;;;;7.67;100.00;100169.41;695259;28;1388;-64
2023/03/17 00:00:32;;;;;;;4.20;2.50;;;;;;;7.71;100.00;100160.72;694432;28;2530;-62
2023/03/17 00:00:53;;;;;;;4.82;2.72;;;;;;;7.76;100.00;100168.53;696133;28;1294;-63
2023/03/17 00:01:15;;;;;;;5.28;2.90;;;;;;;7.73;100.00;100164.19;699513;28;4434;-65
2023/03/17 00:01:36;;;;;;;5.50;2.70;;;;;;;7.74;100.00;100165.94;699377;28;1240;-64
2023/03/17 00:01:56;;;;;;;5.53;2.80;;;;;;;7.67;100.00;100165.06;699273;28;1229;-64
2023/03/17 00:02:17;;;;;;;5.30;2.88;;;;;;;7.70;100.00;100159.00;702063;28;1416;-62
2023/03/17 00:02:41;;;;;;;5.40;2.70;;;;;;;7.75;100.00;100167.63;702169;28;1258;-65
2023/03/17 00:03:03;;;;;;;6.53;2.80;;;;;;;7.76;100.00;100158.97;701674;28;2586;-64
2023/03/17 00:03:26;;;;;;;6.32;2.80;;;;;;;7.74;100.00;100159.84;701562;28;1456;-64
2023/03/17 00:03:49;;;;;;;5.43;2.78;;;;;;;7.69;100.00;100159.84;701353;28;1475;-63
2023/03/17 00:04:11;;;;;;;5.25;2.75;;;;;;;7.69;100.00;100152.06;702500;28;4418;-65
2023/03/17 00:04:32;;;;;;;4.75;2.72;;;;;;;7.64;100.00;100153.78;700607;28;1403;-61
2023/03/17 00:04:52;;;;;;;4.28;2.65;;;;;;;7.71;100.00;100149.44;702330;28;1225;-63
2023/03/17 00:05:24;;;;;;;5.10;2.70;;;;;;;7.74;100.00;100155.53;699868;28;1467;-65
2023/03/17 00:05:44;;;;;;;5.55;2.70;;;;;;;7.81;100.00;100154.63;695425;28;2455;-65
2023/03/17 00:06:10;;;;;;;5.70;2.80;;;;;;;7.82;100.00;100153.78;698528;28;1245;-65
2023/03/17 00:06:32;;;;;;;6.13;2.90;;;;;;;7.81;100.00;100157.25;699533;28;1544;-64
2023/03/17 00:06:55;;;;;;;5.63;2.80;;;;;;;7.88;100.00;100152.91;697858;28;1237;-63
2023/03/17 00:07:16;;;;;;;5.40;2.60;;;;;;;7.79;100.00;100153.75;698028;28;4517;-64
2023/03/17 00:07:36;;;;;;;4.60;2.90;;;;;;;7.72;100.00;100152.03;698840;28;1051;-64
2023/03/17 00:08:06;;;;;;;5.45;3.00;;;;;;;7.72;100.00;100152.03;697639;28;1359;-64
2023/03/17 00:08:32;;;;;;;5.13;3.05;;;;;;;7.73;100.00;100156.38;698977;28;1381;-64
2023/03/17 00:08:52;;;;;;;4.65;2.65;;;;;;;7.75;100.00;100157.22;698305;28;1243;-61
2023/03/17 00:09:15;;;;;;;5.20;2.93;;;;;;;7.74;100.00;100163.31;699850;28;1460;-65
2023/03/17 00:09:36;;;;;;;4.93;2.55;;;;;;;7.79;100.00;100168.53;699877;28;1384;-64
2023/03/17 00:09:56;;;;;;;4.45;2.35;;;;;;;7.77;100.00;100152.91;697819;28;1167;-64
2023/03/17 00:10:24;;;;;;;5.33;2.70;;;;;;;7.69;100.00;100152.06;699769;28;4318;-63
2023/03/17 00:10:44;;;;;;;5.28;2.80;;;;;;;7.72;100.00;100151.19;696565;28;1997;-62
2023/03/17 00:11:10;;;;;;;4.90;2.70;;;;;;;7.76;100.00;100152.91;696488;28;1436;-63
2023/03/17 00:11:30;;;;;;;5.05;2.70;;;;;;;7.75;100.00;100151.19;694060;28;1363;-63
2023/03/17 00:11:51;;;;;;;5.73;2.90;;;;;;;7.74;100.00;100149.44;694134;28;1347;-65
2023/03/17 00:12:11;;;;;;;5.40;2.80;;;;;;;7.75;100.00;100157.22;695327;28;1480;-63
2023/03/17 00:12:32;;;;;;;4.93;2.70;;;;;;;7.73;100.00;100147.72;696411;28;1504;-64
2023/03/17 00:12:54;;;;;;;4.03;2.50;;;;;;;7.77;100.00;100150.31;697920;28;1240;-62
2023/03/17 00:13:14;;;;;;;4.60;2.60;;;;;;;7.73;100.00;100148.56;697350;28;4527;-63
2023/03/17 00:13:35;;;;;;;4.63;2.60;;;;;;;7.76;100.00;100153.78;697554;28;1382;-63
2023/03/17 00:13:55;;;;;;;4.67;2.50;;;;;;;7.81;100.00;100151.19;697132;28;1218;-64
2023/03/17 00:14:16;;;;;;;5.13;2.70;;;;;;;7.77;100.00;100150.31;697344;28;1273;-65
2023/03/17 00:14:36;;;;;;;5.00;2.65;;;;;;;7.73;100.00;100153.78;697938;28;1297;-58
2023/03/17 00:14:57;;;;;;;5.17;2.63;;;;;;;7.68;100.00;100145.09;697305;28;2721;-63
2023/03/17 00:15:19;;;;;;;6.15;2.90;;;;;;;7.67;100.00;100148.59;698306;28;1507;-63
2023/03/17 00:15:39;;;;;;;6.32;2.80;;;;;;;7.64;100.00;100154.66;702330;28;1444;-64
2023/03/17 00:16:02;;;;;;;5.20;2.60;;;;;;;7.63;100.00;100154.69;702625;28;1280;-64
2023/03/17 00:16:27;;;;;;;5.03;2.83;;;;;;;7.61;100.00;100154.66;701762;28;4798;-63
2023/03/17 00:16:49;;;;;;;4.93;2.75;;;;;;;7.70;100.00;100153.78;696883;28;1623;-65
2023/03/17 00:17:13;;;;;;;4.95;2.70;;;;;;;7.66;100.00;100149.47;697969;28;1318;-63
2023/03/17 00:17:33;;;;;;;4.80;2.60;;;;;;;7.74;100.00;100152.03;697245;28;2712;-65
2023/03/17 00:17:55;;;;;;;5.22;2.80;;;;;;;7.74;100.00;100163.31;697175;28;1254;-66
2023/03/17 00:18:17;;;;;;;5.78;2.60;;;;;;;7.70;100.00;100158.09;697825;28;1386;-61
2023/03/17 00:18:38;;;;;;;4.85;2.70;;;;;;;7.64;100.00;100153.78;699428;28;1428;-62
2023/03/17 00:18:58;;;;;;;4.93;2.73;;;;;;;7.76;100.00;100171.13;701320;28;1206;-64
2023/03/17 00:19:29;;;;;;;5.10;2.60;;;;;;;7.71;100.00;100160.72;702740;28;4460;-64
2023/03/17 00:19:50;;;;;;;5.90;2.80;;;;;;;7.73;100.00;100164.19;701019;28;1344;-62
2023/03/17 00:20:14;;;;;;;4.77;2.63;;;;;;;7.78;100.00;100165.06;702331;28;1413;-66
2023/03/17 00:20:35;;;;;;;5.10;2.78;;;;;;;7.82;100.00;100165.91;701592;28;2848;-65
2023/03/17 00:20:55;;;;;;;5.57;2.80;;;;;;;7.76;100.00;100169.38;700802;28;1197;-65
2023/03/17 00:21:23;;;;;;;5.38;2.78;;;;;;;7.74;100.00;100165.03;698968;28;1278;-65
2023/03/17 00:21:45;;;;;;;5.38;3.10;;;;;;;7.83;100.00;100162.44;700836;28;1452;-65
2023/03/17 00:22:14;;;;;;;5.20;2.70;;;;;;;7.78;100.00;100167.66;693586;28;4362;-61
2023/03/17 00:22:34;;;;;;;4.97;2.80;;;;;;;7.78;100.00;100169.38;694312;28;1425;-64
2023/03/17 00:22:59;;;;;;;4.93;2.77;;;;;;;7.74;100.00;100160.72;694961;28;1279;-63
2023/03/17 00:23:23;;;;;;;4.93;2.65;;;;;;;7.76;100.00;100164.19;698133;28;1496;-64
2023/03/17 00:23:47;;;;;;;5.05;2.90;;;;;;;7.72;100.00;100167.66;697243;28;3575;-65
2023/03/17 00:24:10;;;;;;;5.07;2.70;;;;;;;7.79;100.00;100174.56;697364;28;1650;-65
2023/03/17 00:24:31;;;;;;;4.70;2.67;;;;;;;7.72;100.00;100169.41;697306;28;1445;-62
2023/03/17 00:24:51;;;;;;;5.70;2.80;;;;;;;7.75;100.00;100170.25;696948;28;1294;-64
2023/03/17 00:25:22;;;;;;;5.30;2.60;;;;;;;7.82;100.00;100173.72;699314;28;4309;-64
2023/03/17 00:25:44;;;;;;;5.20;2.70;;;;;;;7.78;100.00;100183.28;698383;28;2577;-61
2023/03/17 00:26:04;;;;;;;5.80;2.80;;;;;;;7.77;100.00;100165.91;698829;28;1253;-59
2023/03/17 00:26:25;;;;;;;6.07;2.90;;;;;;;7.80;100.00;100173.72;695380;28;1417;-64
2023/03/17 00:26:47;;;;;;;4.82;2.67;;;;;;;7.79;100.00;100174.56;694871;28;1620;-59
2023/03/17 00:27:11;;;;;;;5.03;2.40;;;;;;;7.80;100.00;100178.06;695147;28;1618;-64
2023/03/17 00:27:31;;;;;;;5.05;2.70;;;;;;;7.77;100.00;100181.53;691349;28;1528;-65
2023/03/17 00:27:52;;;;;;;4.70;2.77;;;;;;;7.77;100.00;100172.88;692791;28;1287;-67
2023/03/17 00:28:18;;;;;;;5.38;2.90;;;;;;;7.87;100.00;100179.78;687825;28;4409;-66
2023/03/17 00:28:38;;;;;;;4.40;2.58;;;;;;;7.83;100.00;100180.66;686759;28;3070;-60
2023/03/17 00:28:59;;;;;;;5.10;2.63;;;;;;;7.82;100.00;100177.19;690340;28;1411;-65
2023/03/17 00:29:19;;;;;;;5.57;2.60;;;;;;;7.73;100.00;100172.00;690352;28;1403;-64
2023/03/17 00:29:40;;;;;;;4.32;2.58;;;;;;;7.79;100.00;100177.19;692200;28;1446;-64
2023/03/17 00:30:00;;;;;;;5.33;2.90;;;;;;;7.73;100.00;100168.53;692687;28;1255;-64
2023/03/17 00:30:21;;;;;;;4.75;2.75;;;;;;;7.78;100.00;100180.66;695615;28;1628;-63
2023/03/17 00:30:42;;;;;;;5.15;2.72;;;;;;;7.74;100.00;100176.34;695507;28;1374;-65
2023/03/17 00:31:12;;;;;;;4.83;2.50;;;;;;;7.84;100.00;100172.84;691591;28;2552;-67
2023/03/17 00:31:33;;;;;;;6.30;2.90;;;;;;;7.87;100.00;100177.19;695086;28;4914;-62
2023/03/17 00:31:55;;;;;;;5.93;2.70;;;;;;;7.89;100.00;100182.38;698030;28;1261;-64
2023/03/17 00:32:20;;;;;;;5.55;2.75;;;;;;;7.92;100.00;100174.56;699464;28;1488;-70
2023/03/17 00:32:45;;;;;;;5.43;2.60;;;;;;;7.92;100.00;100185.84;693774;28;1413;-65
2023/03/17 00:33:08;;;;;;;4.95;2.60;;;;;;;7.88;100.00;100185.84;694114;28;1465;-65
2023/03/17 00:33:32;;;;;;;4.75;2.60;;;;;;;7.92;100.00;100190.19;693559;28;1730;-64
2023/03/17 00:33:53;;;;;;;5.00;2.70;;;;;;;7.88;100.00;100193.66;694962;28;2138;-65
2023/03/17 00:34:17;;;;;;;5.55;2.70;;;;;;;7.84;100.00;100193.66;694509;28;4450;-65
2023/03/17 00:34:38;;;;;;;5.03;2.88;;;;;;;7.86;100.00;100190.19;693483;28;1441;-66
2023/03/17 00:34:59;;;;;;;5.10;2.90;;;;;;;7.84;100.00;100198.00;692074;28;1249;-66
2023/03/17 00:35:22;;;;;;;5.88;2.78;;;;;;;7.83;100.00;100199.72;694139;28;2660;-65
2023/03/17 00:35:45;;;;;;;6.28;2.70;;;;;;;7.80;100.00;100193.69;694978;28;1338;-65
2023/03/17 00:36:12;;;;;;;4.50;2.60;;;;;;;7.84;100.00;100201.47;689662;28;1422;-64
2023/03/17 00:36:33;;;;;;;5.10;2.75;;;;;;;7.80;100.00;100193.69;691665;28;1973;-66
2023/03/17 00:36:56;;;;;;;4.85;2.72;;;;;;;7.73;100.00;100195.41;696207;28;1259;-60
2023/03/17 00:37:16;;;;;;;5.40;2.88;;;;;;;7.75;100.00;100198.00;695068;28;4461;-65
2023/03/17 00:37:38;;;;;;;5.93;2.90;;;;;;;7.77;100.00;100204.94;691153;28;1410;-64
2023/03/17 00:37:58;;;;;;;5.03;2.83;;;;;;;7.86;100.00;100205.81;693673;28;1337;-65
2023/03/17 00:38:21;;;;;;;5.70;2.70;;;;;;;7.88;100.00;100204.06;695075;28;2601;-64
2023/03/17 00:38:41;;;;;;;5.28;2.80;;;;;;;7.97;100.00;100214.47;695157;28;1318;-65
2023/03/17 00:39:02;;;;;;;4.93;2.70;;;;;;;7.92;100.00;100211.88;694448;28;1258;-65
2023/03/17 00:39:24;;;;;;;5.10;2.72;;;;;;;7.87;100.00;100211.00;693619;28;1382;-63
2023/03/17 00:39:48;;;;;;;4.60;2.55;;;;;;;7.77;100.00;100214.50;694246;28;1513;-65
2023/03/17 00:40:15;;;;;;;4.82;2.72;;;;;;;7.71;100.00;100211.88;696072;28;4309;-64
2023/03/17 00:40:35;;;;;;;4.63;2.65;;;;;;;7.68;100.00;100220.56;696701;28;1317;-65
2023/03/17 00:40:56;;;;;;;5.25;2.72;;;;;;;7.68;100.00;100212.75;697384;28;1190;-64
2023/03/17 00:41:17;;;;;;;5.53;2.80;;;;;;;7.71;100.00;100215.34;697013;28;2743;-65
2023/03/17 00:41:38;;;;;;;5.00;2.80;;;;;;;7.74;100.00;100215.38;694749;28;1342;-64
2023/03/17 00:42:00;;;;;;;5.40;2.70;;;;;;;7.74;100.00;100217.97;689026;28;1261;-64
2023/03/17 00:42:20;;;;;;;5.10;2.80;;;;;;;7.73;100.00;100216.22;690713;28;5363;-64
2023/03/17 00:42:41;;;;;;;4.77;2.87;;;;;;;7.70;100.00;100211.03;686919;28;1582;-64
2023/03/17 00:43:02;;;;;;;4.88;2.80;;;;;;;7.63;100.00;100219.72;688536;28;1239;-64
2023/03/17 00:43:22;;;;;;;4.80;2.63;;;;;;;7.72;100.00;100216.22;690203;28;4350;-64
2023/03/17 00:43:44;;;;;;;4.47;2.80;;;;;;;7.63;100.00;100219.72;693716;28;2677;-65
2023/03/17 00:44:05;;;;;;;5.45;2.85;;;;;;;7.63;100.00;100219.72;691921;28;1552;-64
2023/03/17 00:44:27;;;;;;;5.18;2.65;;;;;;;7.74;100.00;100214.47;693454;28;1425;-65
2023/03/17 00:44:47;;;;;;;4.80;2.50;;;;;;;7.74;100.00;100214.47;693720;28;1639;-66
2023/03/17 00:45:09;;;;;;;4.97;2.70;;;;;;;7.86;100.00;100216.22;691808;28;1496;-65
2023/03/17 00:45:29;;;;;;;5.20;2.88;;;;;;;7.81;100.00;100218.84;692652;28;1766;-65
2023/03/17 00:45:51;;;;;;;5.03;2.75;;;;;;;7.84;100.00;100213.63;692993;28;1290;-65
2023/03/17 00:46:20;;;;;;;5.53;2.80;;;;;;;7.81;100.00;100214.50;692481;28;4410;-64
2023/03/17 00:46:41;;;;;;;5.20;2.45;;;;;;;7.79;100.00;100221.41;692273;28;1458;-64
2023/03/17 00:47:01;;;;;;;5.27;2.60;;;;;;;7.72;100.00;100218.84;691062;28;1334;-65
2023/03/17 00:47:21;;;;;;;4.40;2.63;;;;;;;7.73;100.00;100217.97;689982;28;1516;-65
2023/03/17 00:47:44;;;;;;;5.18;3.03;;;;;;;7.66;100.00;100224.91;692868;28;1430;-64
2023/03/17 00:48:13;;;;;;;5.65;2.97;;;;;;;7.62;100.00;100223.19;690056;28;2904;-65
2023/03/17 00:48:36;;;;;;;5.90;2.72;;;;;;;7.60;100.00;100224.88;691275;28;1293;-63
2023/03/17 00:48:58;;;;;;;5.15;2.70;;;;;;;7.57;100.00;100223.16;691801;28;1936;-64
2023/03/17 00:49:21;;;;;;;4.63;3.00;;;;;;;7.56;100.00;100231.84;690970;28;4567;-65
2023/03/17 00:49:42;;;;;;;4.43;2.67;;;;;;;7.58;100.00;100222.28;692096;28;1466;-65
2023/03/17 00:50:04;;;;;;;5.35;2.50;;;;;;;7.66;100.00;100219.72;691849;28;1374;-64
2023/03/17 00:50:26;;;;;;;4.93;2.58;;;;;;;7.77;100.00;100217.09;695723;28;1440;-66
2023/03/17 00:50:49;;;;;;;5.78;2.55;;;;;;;7.76;100.00;100220.56;697928;28;1554;-65
2023/03/17 00:51:10;;;;;;;4.88;2.50;;;;;;;7.73;100.00;100217.97;697357;28;2534;-66
2023/03/17 00:51:31;;;;;;;5.28;2.60;;;;;;;7.75;100.00;100218.81;695007;28;1500;-66
2023/03/17 00:51:51;;;;;;;5.38;2.78;;;;;;;7.68;100.00;100220.56;694717;28;1356;-64
2023/03/17 00:52:12;;;;;;;5.70;3.00;;;;;;;7.65;100.00;100220.56;695881;28;4550;-65
2023/03/17 00:52:34;;;;;;;5.18;2.60;;;;;;;7.58;100.00;100221.44;698001;28;1417;-64
2023/03/17 00:52:56;;;;;;;4.95;2.72;;;;;;;7.59;100.00;100217.97;697281;28;1258;-65
2023/03/17 00:53:20;;;;;;;4.70;2.63;;;;;;;7.59;100.00;100221.44;695834;28;1433;-64
2023/03/17 00:53:41;;;;;;;5.18;2.70;;;;;;;7.60;100.00;100220.56;696248;28;1198;-64
2023/03/17 00:54:02;;;;;;;8.15;2.50;;;;;;;7.56;100.00;100217.94;696607;28;1195;-65
2023/03/17 00:54:22;;;;;;;5.10;2.50;;;;;;;7.60;100.00;100219.69;695667;28;1448;-65
2023/03/17 00:54:44;;;;;;;5.07;2.47;;;;;;;7.55;100.00;100216.25;693858;28;1588;-65
2023/03/17 00:55:07;;;;;;;4.90;2.67;;;;;;;7.63;100.00;100224.91;694434;28;4448;-65
2023/03/17 00:55:28;;;;;;;5.68;3.00;;;;;;;7.61;100.00;100217.09;697058;28;2493;-66
2023/03/17 00:55:48;;;;;;;5.38;2.60;;;;;;;7.60;100.00;100212.78;697915;28;1436;-65
2023/03/17 00:56:16;;;;;;;4.32;2.42;;;;;;;7.59;100.00;100220.56;699266;28;1297;-65
2023/03/17 00:56:38;;;;;;;4.72;2.53;;;;;;;7.55;100.00;100208.44;701674;28;1324;-64
2023/03/17 00:56:58;;;;;;;4.95;2.60;;;;;;;7.48;100.00;100208.41;697755;28;1377;-63
2023/03/17 00:57:19;;;;;;;4.97;2.60;;;;;;;7.41;100.00;100209.28;698438;28;1472;-64
2023/03/17 00:57:40;;;;;;;4.70;2.70;;;;;;;7.41;100.00;100217.09;697507;28;1150;-64
2023/03/17 00:58:00;;;;;;;4.72;2.55;;;;;;;7.51;100.00;100204.97;696393;28;2559;-64
2023/03/17 00:58:28;;;;;;;4.73;2.57;;;;;;;7.64;100.00;100195.41;694246;28;4512;-67
2023/03/17 00:58:48;;;;;;;4.38;2.50;;;;;;;7.66;100.00;100204.09;696196;28;1377;-64
2023/03/17 00:59:29;;;;;;;5.13;2.85;;;;;;;7.66;100.00;100201.50;696423;28;1365;-66
2023/03/17 00:59:50;;;;;;;5.30;2.80;;;;;;;7.62;100.00;100194.56;696231;28;1443;-65
2023/03/17 01:00:31;;;;;;;6.40;2.93;;;;;;;7.63;100.00;100199.75;697189;28;1439;-64
2023/03/17 01:00:52;;;;;;;4.72;2.45;;;;;;;7.64;100.00;100198.91;693536;28;2269;-65
2023/03/17 01:01:12;;;;;;;4.90;2.40;;;;;;;7.60;100.00;100198.88;693865;28;4509;-66
2023/03/17 01:01:33;;;;;;;5.70;2.67;;;;;;;7.64;100.00;100198.00;695250;28;1336;-64
2023/03/17 01:01:54;;;;;;;5.53;2.67;;;;;;;7.60;100.00;100194.56;697683;28;1329;-64
2023/03/17 01:02:14;;;;;;;4.40;2.50;;;;;;;7.58;100.00;100195.44;697335;28;1503;-64
2023/03/17 01:02:35;;;;;;;4.63;2.67;;;;;;;7.59;100.00;100204.97;698673;28;1262;-64
2023/03/17 01:02:56;;;;;;;5.22;2.65;;;;;;;7.60;100.00;100199.75;700043;28;1309;-64
2023/03/17 01:03:16;;;;;;;6.13;2.80;;;;;;;7.55;100.00;100200.63;700581;28;1282;-64
2023/03/17 01:03:37;;;;;;;5.10;2.65;;;;;;;7.55;100.00;100200.63;702113;28;1316;-64
2023/03/17 01:03:58;;;;;;;4.78;2.67;;;;;;;7.52;100.00;100200.59;701826;28;1227;-65
2023/03/17 01:04:18;;;;;;;5.10;2.70;;;;;;;7.49;100.00;100204.97;697141;28;4439;-65
2023/03/17 01:04:40;;;;;;;5.03;2.63;;;;;;;7.51;100.00;100199.75;697178;28;1286;-65
2023/03/17 01:05:00;;;;;;;5.13;2.58;;;;;;;7.60;100.00;100207.56;695540;28;1430;-65
2023/03/17 01:05:23;;;;;;;5.38;2.38;;;;;;;7.73;100.00;100204.97;697208;28;2652;-67
2023/03/17 01:05:43;;;;;;;5.22;2.63;;;;;;;7.72;100.00;100204.09;694904;28;1330;-65
2023/03/17 01:06:06;;;;;;;4.95;2.70;;;;;;;7.82;100.00;100208.44;697304;28;1277;-65
2023/03/17 01:06:27;;;;;;;4.60;2.60;;;;;;;7.81;100.00;100204.09;700704;28;2008;-66
2023/03/17 01:06:49;;;;;;;4.22;2.60;;;;;;;7.79;100.00;100205.81;701863;28;1411;-66
2023/03/17 01:07:10;;;;;;;4.70;2.50;;;;;;;7.74;100.00;100212.78;702432;28;4739;-65
2023/03/17 01:07:31;;;;;;;5.47;2.53;;;;;;;7.72;100.00;100206.69;702630;28;1321;-66
2023/03/17 01:07:54;;;;;;;5.22;2.70;;;;;;;7.71;100.00;100211.88;700095;28;1214;-65
2023/03/17 01:08:15;;;;;;;4.85;2.50;;;;;;;7.66;100.00;100210.16;701150;28;2737;-65
2023/03/17 01:08:37;;;;;;;4.40;2.40;;;;;;;7.63;100.00;100211.91;701755;28;1539;-65
2023/03/17 01:09:02;;;;;;;4.80;2.70;;;;;;;7.55;100.00;100209.28;699823;28;1424;-65
2023/03/17 01:09:25;;;;;;;5.95;2.60;;;;;;;7.55;100.00;100211.03;696257;28;1520;-65
2023/03/17 01:09:46;;;;;;;6.50;2.60;;;;;;;7.53;100.00;100216.22;697231;28;1333;-65
2023/03/17 01:10:16;;;;;;;5.40;2.53;;;;;;;7.57;100.00;100215.34;692156;28;4685;-67
2023/03/17 01:10:37;;;;;;;5.68;2.70;;;;;;;7.63;100.00;100215.38;692073;28;1557;-65
2023/03/17 01:10:58;;;;;;;5.25;2.50;;;;;;;7.63;100.00;100217.09;688741;28;1492;-64
2023/03/17 01:11:19;;;;;;;5.10;2.50;;;;;;;7.56;100.00;100218.84;688735;28;2948;-65
2023/03/17 01:11:41;;;;;;;4.88;2.65;;;;;;;7.57;100.00;100217.09;688431;28;1674;-66
2023/03/17 01:12:02;;;;;;;4.78;2.50;;;;;;;7.55;100.00;100213.63;688673;28;939;-65
2023/03/17 01:12:22;;;;;;;5.57;2.60;;;;;;;7.55;100.00;100216.25;689905;28;1299;-65
2023/03/17 01:12:44;;;;;;;5.05;2.60;;;;;;;7.74;100.00;100211.88;693743;28;1050;-67
2023/03/17 01:13:06;;;;;;;4.07;2.50;;;;;;;7.73;100.00;100213.63;690182;28;4482;-65
2023/03/17 01:13:27;;;;;;;4.43;2.50;;;;;;;7.68;100.00;100204.94;695375;28;842;-65
2023/03/17 01:13:47;;;;;;;4.65;2.40;;;;;;;7.63;100.00;100219.72;697106;28;1109;-65
2023/03/17 01:14:09;;;;;;;4.63;2.40;;;;;;;7.55;100.00;100213.63;693583;28;1209;-65
2023/03/17 01:14:30;;;;;;;4.53;2.60;;;;;;;7.50;100.00;100219.72;694141;28;1074;-65
2023/03/17 01:14:53;;;;;;;4.45;2.58;;;;;;;7.50;100.00;100208.41;694581;28;2569;-64
2023/03/17 01:15:14;;;;;;;4.60;2.60;;;;;;;7.53;100.00;100212.75;698392;28;792;-65
2023/03/17 01:15:41;;;;;;;4.55;2.50;;;;;;;7.49;100.00;100215.34;697809;28;797;-65
2023/03/17 01:16:02;;;;;;;4.78;2.72;;;;;;;7.43;100.00;100217.09;699915;28;1082;-65
2023/03/17 01:16:22;;;;;;;5.20;2.57;;;;;;;7.46;100.00;100212.75;702033;28;4279;-64
2023/03/17 01:16:43;;;;;;;4.88;2.60;;;;;;;7.42;100.00;100213.63;701246;28;1275;-64
2023/03/17 01:17:12;;;;;;;6.00;2.85;;;;;;;7.37;100.00;100217.94;701030;28;1089;-65
2023/03/17 01:17:33;;;;;;;5.22;2.75;;;;;;;7.43;100.00;100212.75;699558;28;952;-65
2023/03/17 01:17:56;;;;;;;4.95;2.58;;;;;;;7.52;100.00;100216.22;698053;28;2744;-64
2023/03/17 01:18:20;;;;;;;4.78;2.67;;;;;;;7.45;100.00;100210.16;692580;28;1263;-64
2023/03/17 01:18:41;;;;;;;4.50;2.65;;;;;;;7.44;100.00;100219.69;692013;28;1392;-65
2023/03/17 01:19:02;;;;;;;5.28;2.83;;;;;;;7.42;100.00;100210.13;691999;28;1266;-65
2023/03/17 01:19:22;;;;;;;4.57;2.80;;;;;;;7.39;100.00;100221.41;693466;28;4269;-65
2023/03/17 01:19:44;;;;;;;6.03;2.83;;;;;;;7.40;100.00;100207.53;695138;28;3376;-65
2023/03/17 01:20:06;;;;;;;4.82;2.63;;;;;;;7.44;100.00;100214.47;694116;28;1925;-65
2023/03/17 01:20:29;;;;;;;5.53;2.67;;;;;;;7.47;100.00;100213.63;698028;28;1223;-65
2023/03/17 01:20:50;;;;;;;5.35;2.50;;;;;;;7.46;100.00;100210.16;694975;28;1394;-65
2023/03/17 01:21:11;;;;;;;4.30;2.40;;;;;;;7.45;100.00;100211.03;695231;28;2530;-65
2023/03/17 01:21:31;;;;;;;5.27;2.60;;;;;;;7.40;100.00;100211.88;695969;28;1290;-65
2023/03/17 01:21:52;;;;;;;4.77;2.60;;;;;;;7.53;100.00;100210.16;696721;28;1313;-64
2023/03/17 01:22:13;;;;;;;4.30;2.60;;;;;;;7.50;100.00;100209.31;697598;28;4861;-65
2023/03/17 01:22:34;;;;;;;5.15;2.50;;;;;;;7.42;100.00;100207.53;700364;28;1381;-64
2023/03/17 01:22:54;;;;;;;4.93;2.73;;;;;;;7.40;100.00;100212.75;698824;28;1413;-65
2023/03/17 01:23:16;;;;;;;5.73;2.87;;;;;;;7.39;100.00;100211.00;699263;28;1586;-65
2023/03/17 01:23:37;;;;;;;5.50;2.58;;;;;;;7.43;100.00;100209.28;696128;28;1310;-64
2023/03/17 01:23:57;;;;;;;5.22;2.50;;;;;;;7.45;100.00;100208.41;693904;28;1359;-64
2023/03/17 01:24:18;;;;;;;4.87;2.60;;;;;;;7.58;100.00;100204.09;692853;28;1429;-65
2023/03/17 01:24:39;;;;;;;5.10;2.72;;;;;;;7.59;100.00;100203.22;690406;28;1232;-66
2023/03/17 01:25:01;;;;;;;5.25;2.65;;;;;;;7.59;100.00;100197.16;689889;28;1220;-65
2023/03/17 01:25:22;;;;;;;5.63;2.50;;;;;;;7.62;100.00;100204.97;689207;28;4524;-65
2023/03/17 01:25:43;;;;;;;4.13;2.50;;;;;;;7.56;100.00;100200.63;689783;28;1295;-65
2023/03/17 01:26:05;;;;;;;4.75;2.50;;;;;;;7.60;100.00;100198.88;689231;28;1252;-66
2023/03/17 01:26:25;;;;;;;5.22;2.70;;;;;;;7.62;100.00;100192.81;689551;28;1387;-65
2023/03/17 01:26:46;;;;;;;5.85;2.80;;;;;;;7.57;100.00;100189.34;690055;28;1520;-65
2023/03/17 01:27:06;;;;;;;5.57;2.50;;;;;;;7.61;100.00;100195.41;691547;28;1312;-65
2023/03/17 01:27:27;;;;;;;4.95;2.50;;;;;;;7.64;100.00;100190.19;690188;28;1441;-65
2023/03/17 01:27:49;;;;;;;5.07;2.60;;;;;;;7.63;100.00;100189.34;692658;28;1361;-64
2023/03/17 01:28:14;;;;;;;5.63;2.63;;;;;;;7.63;100.00;100185.91;694411;28;4362;-65
2023/03/17 01:28:35;;;;;;;4.88;2.65;;;;;;;7.67;100.00;100187.63;690509;28;1461;-65
2023/03/17 01:28:55;;;;;;;6.70;3.60;;;;;;;7.60;100.00;100183.28;692136;28;1542;-62
2023/03/17 01:29:16;;;;;;;5.63;2.83;;;;;;;7.59;100.00;100182.41;693726;28;1398;-65
2023/03/17 01:29:36;;;;;;;5.20;2.65;;;;;;;7.56;100.00;100179.81;694979;28;1448;-64
2023/03/17 01:29:57;;;;;;;4.90;2.60;;;;;;;7.57;100.00;100180.66;696406;28;1547;-65
2023/03/17 01:30:34;;;;;;;5.07;2.60;;;;;;;7.47;100.00;100177.22;693296;28;1555;-64
2023/03/17 01:30:55;;;;;;;6.10;2.78;;;;;;;7.42;100.00;100185.03;692209;28;2516;-65
2023/03/17 01:31:16;;;;;;;4.95;2.42;;;;;;;7.52;100.00;100179.78;691603;28;4471;-66
2023/03/17 01:31:36;;;;;;;4.43;2.35;;;;;;;7.54;100.00;100181.53;694566;28;1492;-64
2023/03/17 01:31:59;;;;;;;4.72;2.65;;;;;;;7.47;100.00;100177.22;694655;28;1268;-63
2023/03/17 01:32:20;;;;;;;4.43;2.50;;;;;;;7.40;100.00;100181.53;694096;28;1624;-64
2023/03/17 01:32:40;;;;;;;4.55;2.50;;;;;;;7.38;100.00;100183.28;694874;28;928;-65
2023/03/17 01:33:01;;;;;;;4.88;2.65;;;;;;;7.39;100.00;100184.13;694172;28;881;-64
2023/03/17 01:33:21;;;;;;;5.00;2.87;;;;;;;7.38;100.00;100175.47;694942;28;936;-64
2023/03/17 01:33:41;;;;;;;4.80;2.70;;;;;;;7.43;100.00;100186.72;693199;28;1414;-65
2023/03/17 01:34:04;;;;;;;4.30;2.60;;;;;;;7.42;100.00;100177.22;693556;28;1480;-65
2023/03/17 01:34:25;;;;;;;4.57;2.70;;;;;;;7.47;100.00;100185.00;694354;28;4654;-65
2023/03/17 01:34:46;;;;;;;4.90;2.80;;;;;;;7.49;100.00;100178.06;689765;28;980;-65
2023/03/17 01:35:07;;;;;;;5.43;2.60;;;;;;;7.48;100.00;100178.94;694845;28;873;-65
2023/03/17 01:35:28;;;;;;;5.18;2.60;;;;;;;7.48;100.00;100173.75;691884;28;2797;-66
2023/03/17 01:35:49;;;;;;;4.80;2.70;;;;;;;7.52;100.00;100174.59;690384;28;970;-65
2023/03/17 01:36:10;;;;;;;5.20;2.60;;;;;;;7.45;100.00;100174.63;694950;28;861;-66
2023/03/17 01:36:30;;;;;;;4.77;2.50;;;;;;;7.48;100.00;100169.41;690280;28;1915;-66
2023/03/17 01:36:52;;;;;;;4.50;2.72;;;;;;;7.49;100.00;100165.94;694533;28;1418;-65
2023/03/17 01:37:13;;;;;;;4.93;2.70;;;;;;;7.48;100.00;100163.34;694875;28;4494;-65
2023/03/17 01:37:34;;;;;;;4.72;2.70;;;;;;;7.48;100.00;100169.41;695830;28;1231;-66
2023/03/17 01:37:56;;;;;;;5.43;2.70;;;;;;;7.48;100.00;100169.41;694196;28;907;-65
2023/03/17 01:38:17;;;;;;;6.25;2.78;;;;;;;7.43;100.00;100172.88;690120;28;2947;-66
2023/03/17 01:38:37;;;;;;;5.43;2.80;;;;;;;7.45;100.00;100169.41;693751;28;856;-66
2023/03/17 01:38:58;;;;;;;5.17;2.70;;;;;;;7.45;100.00;100166.81;690418;28;1288;-66
2023/03/17 01:39:19;;;;;;;5.63;2.78;;;;;;;7.48;100.00;100168.53;691417;28;805;-66
2023/03/17 01:39:40;;;;;;;4.97;2.50;;;;;;;7.53;100.00;100168.53;693171;28;919;-66
2023/03/17 01:40:01;;;;;;;5.00;2.88;;;;;;;7.52;100.00;100172.88;696333;28;908;-65
2023/03/17 01:40:28;;;;;;;4.70;2.60;;;;;;;7.48;100.00;100172.00;698543;28;4293;-65
2023/03/17 01:40:50;;;;;;;5.05;2.50;;;;;;;7.43;100.00;100171.13;701066;28;1143;-64
2023/03/17 01:41:11;;;;;;;4.70;2.50;;;;;;;7.45;100.00;100172.00;697622;28;2814;-65
2023/03/17 01:41:33;;;;;;;5.05;2.60;;;;;;;7.42;100.00;100169.41;697630;28;1410;-65
2023/03/17 01:41:59;;;;;;;5.65;2.80;;;;;;;7.44;100.00;100165.06;695108;28;1239;-65
2023/03/17 01:42:19;;;;;;;5.05;2.80;;;;;;;7.61;100.00;100159.84;695544;28;5128;-65
2023/03/17 01:42:44;;;;;;;4.37;2.50;;;;;;;7.55;100.00;100161.63;696213;28;1284;-64
2023/03/17 01:43:05;;;;;;;4.60;2.67;;;;;;;7.55;100.00;100159.00;697725;28;4596;-64
2023/03/17 01:43:29;;;;;;;5.03;2.63;;;;;;;7.49;100.00;100160.75;699018;28;983;-65
2023/03/17 01:43:50;;;;;;;4.32;2.50;;;;;;;7.49;100.00;100158.13;697681;28;2740;-66
2023/03/17 01:44:17;;;;;;;5.10;2.60;;;;;;;7.54;100.00;100154.66;695922;28;1405;-65
2023/03/17 01:44:59;;;;;;;4.13;2.53;;;;;;;7.53;100.00;100153.78;690168;28;1287;-65
2023/03/17 01:45:57;;;;;;;4.55;2.65;;;;;;;7.46;100.00;100145.16;691606;28;794;-66
2023/03/17 01:46:21;;;;;;;5.60;2.50;;;;;;;7.49;100.00;100139.94;697229;28;5232;-65